Time;durP1;ratioP1;P1;durP2;ratioP2;P2;SDS_P1;SDS_P2;PMS_P1;PMS_P2;Temp;Humidity;BMP_temperature;BMP_pressure;BME280_temperature;BME280_humidity;BME280_pressure;Samples;Min_cycle;Max_cycle;Signal;HPM_P1;HPM_P2
2022/11/02 00:00:00;;;;;;;10.75;2.17;;;12.30;99.90;;;;;;5017006;28;20103;-66
2022/11/02 00:02:27;;;;;;;9.02;2.53;;;12.30;99.90;;;;;;5016699;28;20099;-65
2022/11/02 00:04:54;;;;;;;5.60;2.08;;;12.30;99.90;;;;;;5016390;28;20057;-65
2022/11/02 00:07:22;;;;;;;8.93;2.42;;;12.30;99.90;;;;;;5016638;28;20046;-65
2022/11/02 00:09:49;;;;;;;12.30;2.17;;;12.30;99.90;;;;;;5034439;28;20053;-64
2022/11/02 00:12:15;;;;;;;9.60;1.90;;;12.30;99.90;;;;;;5017312;28;20050;-65
2022/11/02 00:14:42;;;;;;;6.82;2.10;;;12.30;99.90;;;;;;5034920;28;20092;-66
2022/11/02 00:17:09;;;;;;;9.57;2.47;;;12.30;99.90;;;;;;5016239;28;20552;-65
2022/11/02 00:19:36;;;;;;;7.65;2.22;;;12.20;99.90;;;;;;5034767;28;20049;-65
2022/11/02 00:22:03;;;;;;;5.80;1.85;;;12.20;99.90;;;;;;5034946;28;20107;-65
2022/11/02 00:24:33;;;;;;;6.53;2.50;;;12.20;99.90;;;;;;5034335;28;20120;-64
2022/11/02 00:27:00;;;;;;;8.20;2.17;;;12.10;99.90;;;;;;5032895;28;20493;-65
2022/11/02 00:29:27;;;;;;;5.78;1.90;;;11.90;99.90;;;;;;5034840;28;20041;-65
2022/11/02 00:31:54;;;;;;;6.18;1.80;;;11.70;99.90;;;;;;5015976;28;20141;-65
2022/11/02 00:34:21;;;;;;;12.88;2.55;;;11.50;99.90;;;;;;5016778;28;20053;-66
2022/11/02 00:36:48;;;;;;;3.60;1.65;;;11.30;99.90;;;;;;5016394;28;20045;-64
2022/11/02 00:39:14;;;;;;;6.55;2.10;;;11.20;99.90;;;;;;5034324;28;20452;-65
2022/11/02 00:41:43;;;;;;;4.80;1.65;;;11.20;99.90;;;;;;5017008;28;20054;-65
2022/11/02 00:44:09;;;;;;;7.60;2.20;;;11.10;99.90;;;;;;5016090;28;20057;-66
2022/11/02 00:46:36;;;;;;;8.90;1.70;;;11.00;99.90;;;;;;5016645;28;20107;-65
2022/11/02 00:49:03;;;;;;;5.15;1.83;;;10.90;99.90;;;;;;5034297;28;20072;-65
2022/11/02 00:51:30;;;;;;;4.30;1.60;;;10.90;99.90;;;;;;5015951;28;20053;-66
2022/11/02 00:53:57;;;;;;;4.03;1.48;;;10.80;99.90;;;;;;5032591;28;20461;-64
2022/11/02 00:56:23;;;;;;;9.45;1.95;;;10.80;99.90;;;;;;5034596;28;20049;-65
2022/11/02 00:58:52;;;;;;;4.90;1.60;;;10.80;99.90;;;;;;5013124;28;20429;-65
2022/11/02 01:01:19;;;;;;;4.18;1.45;;;10.80;99.90;;;;;;5033902;28;20525;-66
2022/11/02 01:03:45;;;;;;;7.43;1.90;;;10.80;99.90;;;;;;5016704;28;20045;-66
2022/11/02 01:06:14;;;;;;;4.35;1.30;;;10.70;99.90;;;;;;5033296;28;20092;-65
2022/11/02 01:08:42;;;;;;;5.82;1.58;;;10.70;99.90;;;;;;5034248;28;20058;-65
2022/11/02 01:11:14;;;;;;;4.97;1.42;;;10.70;99.90;;;;;;5031874;28;20049;-64
2022/11/02 01:13:41;;;;;;;9.43;1.63;;;10.70;99.90;;;;;;5015273;28;20100;-64
2022/11/02 01:16:10;;;;;;;6.38;1.75;;;10.70;99.90;;;;;;5016155;28;20061;-64
2022/11/02 01:18:37;;;;;;;3.53;1.48;;;10.70;99.90;;;;;;5016289;28;20049;-64
2022/11/02 01:21:04;;;;;;;3.90;1.40;;;10.60;99.90;;;;;;5014967;28;20168;-65
2022/11/02 01:23:32;;;;;;;3.35;1.25;;;10.60;99.90;;;;;;5034124;28;20091;-65
2022/11/02 01:26:02;;;;;;;3.42;1.45;;;10.50;99.90;;;;;;5032981;28;20055;-65
2022/11/02 01:28:29;;;;;;;2.67;1.20;;;10.50;99.90;;;;;;5015642;28;20095;-65
2022/11/02 01:30:55;;;;;;;4.75;1.38;;;10.50;99.90;;;;;;5015805;28;20057;-66
2022/11/02 01:33:24;;;;;;;3.33;1.10;;;10.40;99.90;;;;;;5014923;28;20103;-64
2022/11/02 01:35:50;;;;;;;2.97;0.95;;;10.50;99.90;;;;;;5033791;28;20041;-66
2022/11/02 01:38:17;;;;;;;5.03;1.33;;;10.40;99.90;;;;;;5016036;28;20103;-66
2022/11/02 01:40:44;;;;;;;6.43;1.58;;;10.40;99.90;;;;;;5014928;28;20042;-66
2022/11/02 01:43:22;;;;;;;2.95;1.10;;;10.40;99.90;;;;;;5033288;28;20045;-65
2022/11/02 01:45:52;;;;;;;5.18;1.08;;;10.30;99.90;;;;;;5015838;28;20053;-66
2022/11/02 01:48:21;;;;;;;;;;;10.30;99.90;;;;;;5015121;28;20053;-66
2022/11/02 01:50:49;;;;;;;2.17;1.17;;;10.30;99.90;;;;;;5033122;28;19991;-66
2022/11/02 01:53:16;;;;;;;2.40;1.00;;;10.30;99.90;;;;;;5015310;28;20091;-65
2022/11/02 01:55:43;;;;;;;4.22;1.23;;;10.30;99.90;;;;;;5032238;28;20099;-66
2022/11/02 01:58:12;;;;;;;5.13;1.40;;;10.30;99.90;;;;;;5015559;28;20076;-65
2022/11/02 02:00:39;;;;;;;5.60;1.73;;;10.40;99.90;;;;;;5032726;28;20053;-64
2022/11/02 02:03:09;;;;;;;4.13;1.40;;;10.40;99.90;;;;;;5030301;28;20099;-64
2022/11/02 02:05:46;;;;;;;2.53;1.38;;;10.40;99.90;;;;;;5014068;28;20045;-64
2022/11/02 02:08:18;;;;;;;5.15;1.90;;;10.40;99.90;;;;;;5014451;28;20049;-65
2022/11/02 02:10:45;;;;;;;3.75;1.42;;;10.40;99.90;;;;;;5032876;28;20053;-64
2022/11/02 02:13:12;;;;;;;2.50;0.88;;;10.30;99.90;;;;;;5015362;28;20408;-66
2022/11/02 02:15:45;;;;;;;3.60;1.20;;;10.30;99.90;;;;;;5014174;28;20108;-65
2022/11/02 02:18:16;;;;;;;6.90;1.55;;;10.20;99.90;;;;;;5014725;28;20056;-64
2022/11/02 02:21:04;;;;;;;2.00;1.10;;;10.20;99.90;;;;;;5014558;28;20123;-65
2022/11/02 02:23:56;;;;;;;5.78;1.70;;;10.20;99.90;;;;;;5012582;28;20053;-64
2022/11/02 02:26:55;;;;;;;6.07;1.75;;;10.30;99.90;;;;;;5013317;28;20053;-65
2022/11/02 02:29:29;;;;;;;4.63;2.00;;;10.30;99.90;;;;;;4993292;28;20108;-64
2022/11/02 02:32:02;;;;;;;5.47;2.28;;;10.30;99.90;;;;;;5015084;28;20123;-64
2022/11/02 02:34:35;;;;;;;2.75;1.80;;;10.20;99.90;;;;;;5032584;28;20037;-64
2022/11/02 02:37:06;;;;;;;8.38;2.08;;;10.20;99.90;;;;;;5014056;28;20045;-64
2022/11/02 02:39:41;;;;;;;4.57;2.10;;;10.20;99.90;;;;;;5029914;28;20048;-65
2022/11/02 02:42:13;;;;;;;3.35;1.88;;;10.20;99.90;;;;;;5012374;28;20056;-64
2022/11/02 02:44:46;;;;;;;8.85;2.80;;;10.20;99.90;;;;;;5014146;28;20054;-64
2022/11/02 02:47:17;;;;;;;7.13;2.83;;;10.20;99.90;;;;;;5014510;28;20413;-66
2022/11/02 02:49:48;;;;;;;9.20;2.72;;;10.20;99.90;;;;;;5032120;28;20497;-65
2022/11/02 02:52:18;;;;;;;8.02;2.63;;;10.20;99.90;;;;;;5031520;28;20490;-65
2022/11/02 02:54:47;;;;;;;8.68;2.40;;;10.20;99.90;;;;;;5030171;28;20096;-65
2022/11/02 02:57:17;;;;;;;7.78;2.40;;;10.20;99.90;;;;;;5032347;28;20045;-65
2022/11/02 02:59:47;;;;;;;6.07;2.58;;;10.30;99.90;;;;;;5013895;28;20524;-64
2022/11/02 03:02:19;;;;;;;6.43;2.25;;;10.30;99.90;;;;;;5014477;28;20060;-65
2022/11/02 03:04:46;;;;;;;7.72;1.90;;;10.40;99.90;;;;;;5013854;28;20057;-64
2022/11/02 03:07:18;;;;;;;10.18;1.95;;;10.40;99.90;;;;;;5032079;28;20041;-64
2022/11/02 03:09:50;;;;;;;4.03;1.55;;;10.40;99.90;;;;;;5030692;28;20120;-65
2022/11/02 03:12:24;;;;;;;3.95;1.40;;;10.30;99.90;;;;;;5009071;28;20229;-65
2022/11/02 03:15:03;;;;;;;5.00;1.58;;;10.30;99.90;;;;;;5030085;28;20444;-65
2022/11/02 03:17:35;;;;;;;4.18;1.35;;;10.30;99.90;;;;;;5030205;28;20061;-65
2022/11/02 03:20:10;;;;;;;5.30;1.73;;;10.20;99.90;;;;;;5031332;28;20476;-65
2022/11/02 03:22:47;;;;;;;4.75;1.25;;;10.10;99.90;;;;;;5032028;28;20076;-64
2022/11/02 03:25:18;;;;;;;4.55;1.30;;;10.10;99.90;;;;;;5031833;28;20051;-65
2022/11/02 03:27:51;;;;;;;3.42;1.13;;;10.10;99.90;;;;;;5029925;28;20107;-65
2022/11/02 03:30:21;;;;;;;4.65;1.15;;;10.10;99.90;;;;;;5031908;28;20103;-64
2022/11/02 03:32:52;;;;;;;4.00;1.20;;;10.10;99.90;;;;;;5013150;28;20107;-65
2022/11/02 03:35:25;;;;;;;2.47;1.10;;;10.20;99.90;;;;;;5014357;28;20065;-65
2022/11/02 03:37:58;;;;;;;9.35;1.70;;;10.10;99.90;;;;;;5014172;28;20085;-65
2022/11/02 03:40:29;;;;;;;4.97;1.40;;;10.20;99.90;;;;;;5030813;28;20487;-64
2022/11/02 03:42:56;;;;;;;;;;;10.20;99.90;;;;;;5032451;28;20088;-65
2022/11/02 03:45:28;;;;;;;8.23;1.35;;;10.10;99.90;;;;;;5013846;28;19967;-64
2022/11/02 03:47:59;;;;;;;5.70;1.65;;;10.10;99.90;;;;;;5013156;28;20144;-64
2022/11/02 03:50:26;;;;;;;5.30;1.70;;;10.10;99.90;;;;;;5013901;28;20121;-64
2022/11/02 03:52:57;;;;;;;8.75;1.70;;;10.00;99.90;;;;;;5031886;28;20065;-65
2022/11/02 03:55:29;;;;;;;3.42;1.50;;;10.00;99.90;;;;;;5013359;28;20056;-64
2022/11/02 03:57:56;;;;;;;6.53;1.48;;;10.00;99.90;;;;;;5031605;28;20049;-65
2022/11/02 04:00:27;;;;;;;5.78;1.70;;;10.00;99.90;;;;;;5013575;28;20045;-63
2022/11/02 04:02:57;;;;;;;3.72;1.42;;;10.00;99.90;;;;;;5030807;28;20049;-65
2022/11/02 04:05:29;;;;;;;6.47;1.90;;;10.00;99.90;;;;;;5013889;28;20087;-64
2022/11/02 04:14:36;;;;;;;4.95;1.23;;;10.10;99.90;;;;;;5011845;28;20045;-64
2022/11/02 04:16:14;;;;;;;6.50;2.10;;;10.20;99.90;;;;;;5012721;28;20493;-65
2022/11/02 04:21:25;;;;;;;8.55;1.73;;;10.20;99.90;;;;;;5031518;28;20045;-65
2022/11/02 04:26:36;;;;;;;5.47;1.77;;;10.30;99.90;;;;;;5017533;28;20057;-64
2022/11/02 04:29:03;;;;;;;10.75;1.90;;;10.40;99.90;;;;;;5033780;28;20087;-64
2022/11/02 04:31:31;;;;;;;8.43;2.38;;;10.50;99.90;;;;;;5017486;28;20053;-65
2022/11/02 04:33:58;;;;;;;8.07;2.03;;;10.50;99.90;;;;;;5015118;28;20548;-65
2022/11/02 04:36:25;;;;;;;9.65;1.70;;;10.60;99.90;;;;;;5016425;28;20156;-66
2022/11/02 04:38:51;;;;;;;5.10;1.45;;;10.60;99.90;;;;;;5011807;28;20050;-64
2022/11/02 04:44:05;;;;;;;8.93;1.92;;;10.50;99.90;;;;;;5025846;28;20042;-65
2022/11/02 04:46:35;;;;;;;4.97;1.60;;;10.40;99.90;;;;;;5027882;28;21075;-64
2022/11/02 04:49:03;;;;;;;10.07;1.88;;;10.40;99.90;;;;;;5014417;28;20054;-64
2022/11/02 04:51:30;;;;;;;10.45;2.53;;;10.30;99.90;;;;;;5009893;28;20053;-65
2022/11/02 04:53:58;;;;;;;8.25;1.88;;;10.30;99.90;;;;;;5009436;28;20045;-65
2022/11/02 04:56:25;;;;;;;8.23;2.00;;;10.30;99.90;;;;;;5011034;28;20401;-65
2022/11/02 04:58:53;;;;;;;7.10;1.77;;;10.20;99.90;;;;;;5028948;28;20057;-65
2022/11/02 05:01:22;;;;;;;7.20;2.13;;;10.20;99.90;;;;;;5009029;28;20049;-65
2022/11/02 05:03:51;;;;;;;4.00;1.90;;;10.20;99.90;;;;;;5011974;28;20049;-64
2022/11/02 05:06:19;;;;;;;10.52;3.17;;;10.20;99.90;;;;;;5011124;28;20110;-64
2022/11/02 05:08:46;;;;;;;6.43;2.15;;;10.20;99.90;;;;;;5012282;28;20143;-65
2022/11/02 05:11:14;;;;;;;5.97;2.22;;;10.20;99.90;;;;;;5028687;28;20049;-66
2022/11/02 05:13:43;;;;;;;12.63;2.17;;;10.20;99.90;;;;;;5028868;28;20382;-65
2022/11/02 05:16:13;;;;;;;7.53;2.50;;;10.30;99.90;;;;;;5027495;28;20053;-64
2022/11/02 05:18:40;;;;;;;8.38;2.10;;;10.30;99.90;;;;;;5023497;28;20046;-65
2022/11/02 05:21:10;;;;;;;8.18;2.70;;;10.30;99.90;;;;;;5008551;28;20045;-64
2022/11/02 05:23:37;;;;;;;9.60;2.30;;;10.30;99.90;;;;;;5032745;28;20444;-65
2022/11/02 05:26:05;;;;;;;6.00;1.75;;;10.30;99.90;;;;;;5013295;28;20481;-64
2022/11/02 05:28:32;;;;;;;7.47;2.55;;;10.30;99.90;;;;;;5026300;28;20053;-65
2022/11/02 05:31:01;;;;;;;7.68;2.30;;;10.20;99.90;;;;;;5028342;28;20116;-65
2022/11/02 05:33:29;;;;;;;6.13;2.75;;;10.20;99.90;;;;;;5026936;28;20042;-65
2022/11/02 05:35:56;;;;;;;5.70;2.10;;;10.20;99.90;;;;;;5027401;28;20145;-65
2022/11/02 05:38:25;;;;;;;7.75;3.10;;;10.20;99.90;;;;;;5015092;28;20658;-64
2022/11/02 05:40:52;;;;;;;7.63;2.67;;;10.10;99.90;;;;;;5008885;28;20088;-66
2022/11/02 05:43:19;;;;;;;10.38;2.78;;;10.10;99.90;;;;;;5009817;28;20103;-64
2022/11/02 05:45:52;;;;;;;11.98;2.33;;;10.20;99.90;;;;;;5012600;28;20488;-64
2022/11/02 05:48:20;;;;;;;9.60;2.92;;;10.20;99.90;;;;;;5028326;28;20071;-63
2022/11/02 05:50:47;;;;;;;9.45;2.95;;;10.30;99.90;;;;;;5025452;28;20049;-66
2022/11/02 05:53:14;;;;;;;8.63;3.05;;;10.30;99.90;;;;;;5030997;28;20448;-65
2022/11/02 05:55:42;;;;;;;6.82;2.20;;;10.30;99.90;;;;;;5029032;28;20048;-65
2022/11/02 05:58:09;;;;;;;8.82;2.55;;;10.30;99.90;;;;;;5024723;28;20058;-64
2022/11/02 06:00:35;;;;;;;9.48;2.22;;;10.30;99.90;;;;;;5028016;28;20108;-64
2022/11/02 06:03:02;;;;;;;12.20;3.53;;;10.30;99.90;;;;;;5008750;28;20053;-65
2022/11/02 06:05:29;;;;;;;11.70;2.75;;;10.30;99.90;;;;;;5027544;28;20049;-65
2022/11/02 06:08:00;;;;;;;5.20;2.30;;;10.20;99.90;;;;;;5008909;28;20111;-64
2022/11/02 06:10:28;;;;;;;9.10;2.92;;;10.20;99.90;;;;;;5008733;28;20045;-65
2022/11/02 06:12:57;;;;;;;9.20;2.92;;;10.20;99.90;;;;;;5009161;28;20053;-65
2022/11/02 06:15:24;;;;;;;7.68;2.50;;;10.10;99.90;;;;;;5025185;28;20044;-63
2022/11/02 06:17:51;;;;;;;6.15;2.92;;;10.10;99.90;;;;;;5026498;28;20053;-64
2022/11/02 06:20:19;;;;;;;10.05;2.97;;;10.10;99.90;;;;;;5006423;28;20115;-65
2022/11/02 06:22:46;;;;;;;7.80;2.65;;;10.10;99.90;;;;;;5006699;28;20053;-65
2022/11/02 06:25:14;;;;;;;10.75;2.63;;;10.20;99.90;;;;;;5025303;28;20042;-65
2022/11/02 06:27:42;;;;;;;6.10;2.40;;;10.30;99.90;;;;;;5003132;28;20049;-63
2022/11/02 06:30:11;;;;;;;8.82;2.88;;;10.30;99.90;;;;;;5007108;28;20077;-64
2022/11/02 06:32:38;;;;;;;12.02;2.88;;;10.30;99.90;;;;;;5006764;28;20054;-65
2022/11/02 06:35:05;;;;;;;9.43;2.83;;;10.30;99.90;;;;;;5008487;28;20049;-65
2022/11/02 06:37:35;;;;;;;7.50;2.47;;;10.30;99.90;;;;;;5026472;28;20132;-65
2022/11/02 06:40:02;;;;;;;10.07;2.67;;;10.40;99.90;;;;;;5008976;28;20049;-64
2022/11/02 06:42:29;;;;;;;13.43;3.05;;;10.40;99.90;;;;;;5027183;28;20045;-64
2022/11/02 06:45:01;;;;;;;11.68;2.25;;;10.40;99.90;;;;;;5024303;28;20048;-65
2022/11/02 06:47:31;;;;;;;5.95;2.05;;;10.30;99.90;;;;;;5009934;28;20533;-64
2022/11/02 06:49:58;;;;;;;;;;;10.40;99.90;;;;;;5006745;28;20088;-64
2022/11/02 06:52:25;;;;;;;8.65;2.30;;;10.40;99.90;;;;;;5008216;28;20600;-65
2022/11/02 06:54:52;;;;;;;6.15;1.95;;;10.40;99.90;;;;;;5010329;28;20045;-65
2022/11/02 06:57:19;;;;;;;8.95;2.58;;;10.40;99.90;;;;;;5024775;28;20057;-64
2022/11/02 06:59:46;;;;;;;11.05;2.58;;;10.40;99.90;;;;;;5012607;28;20099;-65
2022/11/02 07:02:13;;;;;;;12.02;2.53;;;10.50;99.90;;;;;;5031135;28;20097;-65
2022/11/02 07:04:41;;;;;;;8.93;2.30;;;10.50;99.90;;;;;;5029899;28;20049;-64
2022/11/02 07:07:09;;;;;;;10.48;3.45;;;10.50;99.90;;;;;;5031056;28;20103;-65
2022/11/02 07:09:37;;;;;;;6.50;2.00;;;10.50;99.90;;;;;;5030421;28;20496;-64
2022/11/02 07:12:04;;;;;;;13.00;3.55;;;10.60;99.90;;;;;;5012624;28;20397;-64
2022/11/02 07:14:30;;;;;;;15.07;2.80;;;10.60;99.90;;;;;;5028406;28;20436;-65
2022/11/02 07:16:57;;;;;;;9.38;2.45;;;10.70;99.90;;;;;;4988539;28;1062971;-64
2022/11/02 07:19:24;;;;;;;13.95;2.42;;;10.80;99.90;;;;;;5030741;28;20524;-65
2022/11/02 07:21:52;;;;;;;5.30;2.35;;;10.80;99.90;;;;;;5029972;28;20049;-64
2022/11/02 07:24:19;;;;;;;13.15;2.63;;;10.80;99.90;;;;;;5013405;28;20045;-64
2022/11/02 07:26:48;;;;;;;13.40;2.63;;;10.80;99.90;;;;;;5030935;28;20575;-65
2022/11/02 07:29:15;;;;;;;6.75;2.70;;;10.80;99.90;;;;;;5024155;28;20053;-64
2022/11/02 07:31:42;;;;;;;6.88;2.00;;;10.80;99.90;;;;;;5031659;28;20124;-64
2022/11/02 07:34:08;;;;;;;10.70;2.90;;;10.80;99.90;;;;;;5012482;28;20045;-65
2022/11/02 07:36:35;;;;;;;11.85;2.42;;;10.80;99.90;;;;;;5013395;28;20049;-64
2022/11/02 07:39:04;;;;;;;6.35;2.10;;;10.80;99.90;;;;;;5014704;28;20049;-64
2022/11/02 07:41:31;;;;;;;9.77;1.70;;;10.80;99.90;;;;;;5012650;28;20084;-64
2022/11/02 07:43:58;;;;;;;6.60;2.15;;;10.70;99.90;;;;;;5028730;28;20896;-65
2022/11/02 07:46:24;;;;;;;4.78;1.98;;;10.70;99.90;;;;;;5025587;28;20092;-65
2022/11/02 07:48:51;;;;;;;6.82;1.60;;;10.70;99.90;;;;;;5029064;28;20056;-65
2022/11/02 07:51:18;;;;;;;2.97;1.50;;;10.60;99.90;;;;;;5013737;28;20103;-66
2022/11/02 07:53:45;;;;;;;4.32;1.30;;;10.60;99.90;;;;;;5030536;28;20046;-64
2022/11/02 07:56:13;;;;;;;8.73;1.80;;;10.70;99.90;;;;;;5013094;28;20049;-65
2022/11/02 07:58:40;;;;;;;7.60;1.73;;;10.70;99.90;;;;;;5015907;28;20061;-66
2022/11/02 08:01:07;;;;;;;11.43;2.50;;;10.80;99.90;;;;;;5032214;28;20049;-65
2022/11/02 08:03:33;;;;;;;12.48;1.88;;;10.80;99.90;;;;;;5035191;28;20107;-65
2022/11/02 08:06:02;;;;;;;7.55;2.33;;;10.70;99.90;;;;;;5032916;28;20045;-64
2022/11/02 08:08:29;;;;;;;6.30;2.13;;;10.80;99.90;;;;;;5034178;28;20599;-65
2022/11/02 08:11:02;;;;;;;6.93;1.73;;;10.80;99.90;;;;;;5027328;28;20544;-65
2022/11/02 08:13:30;;;;;;;6.72;1.52;;;10.90;99.90;;;;;;5032442;28;20053;-65
2022/11/02 08:15:57;;;;;;;4.68;1.50;;;11.00;99.90;;;;;;5012002;28;20125;-66
2022/11/02 08:18:25;;;;;;;5.07;2.28;;;11.50;99.90;;;;;;5016802;28;20050;-65
2022/11/02 08:20:52;;;;;;;5.20;1.60;;;11.90;99.90;;;;;;5024586;28;20049;-66
2022/11/02 08:23:20;;;;;;;4.85;1.50;;;12.10;99.90;;;;;;5004812;28;20104;-66
2022/11/02 08:25:49;;;;;;;6.22;1.60;;;12.30;99.90;;;;;;5009088;28;20171;-65
2022/11/02 08:28:17;;;;;;;10.38;1.90;;;12.90;99.90;;;;;;5011057;28;20072;-64
2022/11/02 08:30:46;;;;;;;6.60;1.55;;;12.70;99.90;;;;;;5027110;28;20107;-66
2022/11/02 08:33:17;;;;;;;4.93;1.40;;;12.50;99.90;;;;;;5014898;28;20057;-65
2022/11/02 08:35:45;;;;;;;6.20;1.77;;;12.80;99.90;;;;;;5008531;28;20556;-66
2022/11/02 08:38:12;;;;;;;10.70;2.03;;;13.90;99.90;;;;;;5015704;28;20053;-65
2022/11/02 08:40:39;;;;;;;8.70;1.83;;;15.40;99.90;;;;;;5015943;28;20489;-65
2022/11/02 08:43:08;;;;;;;8.55;1.70;;;15.80;99.90;;;;;;5015870;28;20045;-65
2022/11/02 08:45:37;;;;;;;5.60;1.50;;;15.70;99.90;;;;;;5034231;28;20460;-65
2022/11/02 08:48:06;;;;;;;6.18;1.50;;;15.70;99.90;;;;;;5027441;28;20049;-65
2022/11/02 08:50:34;;;;;;;4.57;1.42;;;16.50;99.90;;;;;;5013859;28;20050;-65
2022/11/02 08:53:00;;;;;;;7.95;1.75;;;17.20;99.90;;;;;;5033751;28;20037;-65
2022/11/02 08:55:28;;;;;;;7.82;2.00;;;18.00;99.90;;;;;;5016350;28;20394;-65
2022/11/02 08:57:56;;;;;;;6.35;2.25;;;18.40;99.90;;;;;;5015407;28;20099;-65
2022/11/02 09:00:25;;;;;;;6.00;2.03;;;19.00;99.90;;;;;;5016666;28;20045;-66
2022/11/02 09:03:00;;;;;;;5.30;1.80;;;19.20;99.90;;;;;;5014090;28;20053;-66
2022/11/02 09:05:29;;;;;;;7.07;1.88;;;19.50;99.90;;;;;;5030417;28;20099;-66
2022/11/02 09:07:58;;;;;;;9.93;1.92;;;19.90;99.90;;;;;;5034036;28;20057;-65
2022/11/02 09:10:25;;;;;;;5.18;1.40;;;20.30;99.90;;;;;;5014286;28;20115;-65
2022/11/02 09:12:52;;;;;;;9.13;2.08;;;20.40;99.90;;;;;;5014027;28;20103;-65
2022/11/02 09:15:19;;;;;;;4.28;1.52;;;20.40;99.90;;;;;;5015689;28;20088;-65
2022/11/02 09:17:47;;;;;;;5.82;1.42;;;20.70;99.90;;;;;;5033443;28;20049;-65
2022/11/02 09:20:15;;;;;;;7.50;2.28;;;20.90;99.90;;;;;;5033770;28;20136;-66
2022/11/02 09:22:43;;;;;;;12.82;2.10;;;20.90;99.90;;;;;;5015898;28;20509;-66
2022/11/02 09:25:11;;;;;;;4.97;1.80;;;20.50;99.90;;;;;;5015050;28;20053;-66
2022/11/02 09:27:38;;;;;;;8.15;2.38;;;21.10;99.90;;;;;;5033649;28;20139;-66
2022/11/02 09:30:06;;;;;;;5.35;2.10;;;19.80;98.70;;;;;;5033806;28;20397;-66
2022/11/02 09:32:33;;;;;;;8.75;1.70;;;19.00;99.90;;;;;;5014827;28;20065;-65
2022/11/02 09:35:00;;;;;;;6.53;2.28;;;18.20;99.90;;;;;;5033851;28;20452;-66
2022/11/02 09:37:27;;;;;;;5.80;1.73;;;18.50;99.90;;;;;;5015433;28;20227;-65
2022/11/02 09:39:57;;;;;;;7.82;1.92;;;19.00;99.90;;;;;;5033252;28;20049;-66
2022/11/02 09:42:28;;;;;;;10.15;2.47;;;19.30;99.90;;;;;;5015555;28;20050;-66
2022/11/02 09:44:59;;;;;;;6.85;1.83;;;19.00;99.70;;;;;;5033170;28;20049;-65
2022/11/02 09:47:28;;;;;;;6.65;2.42;;;20.10;99.80;;;;;;5014793;28;20493;-66
2022/11/02 09:49:56;;;;;;;7.85;2.50;;;18.90;99.20;;;;;;5013880;28;20481;-65
2022/11/02 09:52:30;;;;;;;7.50;2.03;;;18.00;99.90;;;;;;5015411;28;20539;-66
2022/11/02 09:55:02;;;;;;;9.90;2.20;;;17.60;99.90;;;;;;5015413;28;20041;-65
2022/11/02 09:57:31;;;;;;;12.05;2.17;;;17.40;99.90;;;;;;5014806;28;20500;-66
2022/11/02 09:59:59;;;;;;;16.07;2.40;;;17.20;99.90;;;;;;5001510;28;20052;-66
2022/11/02 10:02:36;;;;;;;8.27;2.30;;;17.20;99.90;;;;;;5004403;28;20421;-65
2022/11/02 10:05:26;;;;;;;7.50;1.60;;;17.00;99.90;;;;;;5010208;28;20057;-65
2022/11/02 10:08:25;;;;;;;7.47;2.53;;;16.70;99.90;;;;;;5007330;28;20045;-65
2022/11/02 10:11:12;;;;;;;8.55;2.17;;;16.50;99.90;;;;;;5022469;28;20081;-64
2022/11/02 10:13:45;;;;;;;9.82;2.72;;;16.10;99.90;;;;;;5011903;28;20111;-64
2022/11/02 10:16:17;;;;;;;9.50;2.45;;;15.60;99.90;;;;;;5007794;28;20115;-65
2022/11/02 10:18:48;;;;;;;14.70;2.22;;;15.00;99.90;;;;;;5028489;28;20050;-64
2022/11/02 10:21:19;;;;;;;8.52;2.10;;;14.60;99.90;;;;;;5023182;28;20120;-66
2022/11/02 10:23:50;;;;;;;11.45;2.33;;;14.20;99.90;;;;;;5009523;28;20115;-65
2022/11/02 10:26:22;;;;;;;10.15;2.65;;;14.00;99.90;;;;;;5009322;28;20111;-65
2022/11/02 10:28:55;;;;;;;8.88;1.88;;;13.70;99.90;;;;;;5007490;28;20073;-64
2022/11/02 10:31:26;;;;;;;10.27;2.15;;;13.60;99.90;;;;;;5007706;28;20057;-64
2022/11/02 10:33:56;;;;;;;8.55;2.45;;;13.70;99.90;;;;;;5006037;28;20493;-65
2022/11/02 10:36:39;;;;;;;6.45;1.83;;;13.90;99.90;;;;;;5007430;28;23091;-64
2022/11/02 10:39:21;;;;;;;9.50;2.20;;;14.60;99.90;;;;;;5026328;28;20789;-65
2022/11/02 10:42:08;;;;;;;7.63;1.83;;;15.40;99.90;;;;;;5023967;28;20057;-64
2022/11/02 10:45:12;;;;;;;9.48;2.60;;;15.40;99.90;;;;;;5025603;28;20547;-64
2022/11/02 10:47:45;;;;;;;7.05;2.42;;;14.90;99.90;;;;;;4978099;28;20056;-65
2022/11/02 10:50:28;;;;;;;7.63;1.75;;;14.60;99.90;;;;;;5023423;28;20203;-65
2022/11/02 10:52:59;;;;;;;14.48;2.45;;;15.20;99.90;;;;;;5008273;28;20053;-65
2022/11/02 10:55:29;;;;;;;9.77;2.15;;;16.00;99.90;;;;;;5012018;28;20443;-65
2022/11/02 10:58:00;;;;;;;10.52;2.13;;;17.90;99.90;;;;;;5024781;28;20505;-65
2022/11/02 11:00:30;;;;;;;8.50;2.03;;;19.30;99.90;;;;;;5026129;28;20053;-64
2022/11/02 11:03:09;;;;;;;5.85;1.67;;;20.10;98.90;;;;;;5006548;28;20053;-66
2022/11/02 11:05:38;;;;;;;9.05;1.88;;;20.70;95.40;;;;;;5010566;28;20463;-65
2022/11/02 11:08:06;;;;;;;6.80;2.28;;;21.10;94.60;;;;;;5025127;28;20096;-65
2022/11/02 11:10:37;;;;;;;8.38;2.47;;;21.30;92.20;;;;;;5008613;28;20136;-64
2022/11/02 11:13:20;;;;;;;6.78;1.80;;;20.80;92.00;;;;;;5007863;28;20053;-65
2022/11/02 11:15:51;;;;;;;8.60;1.73;;;20.30;92.70;;;;;;5005949;28;20065;-65
2022/11/02 11:18:20;;;;;;;6.25;1.70;;;19.30;93.00;;;;;;5016832;28;20052;-66
2022/11/02 11:20:48;;;;;;;7.20;1.88;;;19.00;94.40;;;;;;5026707;28;20045;-66
2022/11/02 11:23:22;;;;;;;9.68;2.33;;;19.40;94.10;;;;;;5028564;28;20496;-66
2022/11/02 11:26:00;;;;;;;7.05;2.03;;;20.10;92.60;;;;;;5006555;28;20049;-66
2022/11/02 11:28:31;;;;;;;4.53;1.42;;;20.60;91.90;;;;;;5010941;28;20046;-66
2022/11/02 11:31:14;;;;;;;6.03;1.77;;;20.90;92.40;;;;;;5026920;28;20091;-65
2022/11/02 11:33:44;;;;;;;4.82;1.58;;;22.10;91.10;;;;;;5027214;28;20049;-65
2022/11/02 11:36:20;;;;;;;7.75;1.70;;;22.90;90.80;;;;;;5009322;28;20049;-65
2022/11/02 11:38:49;;;;;;;7.03;1.83;;;22.80;87.30;;;;;;5011952;28;20092;-64
2022/11/02 11:41:16;;;;;;;9.38;2.13;;;21.90;85.20;;;;;;5026208;28;20065;-66
2022/11/02 11:43:46;;;;;;;7.70;1.52;;;21.80;84.20;;;;;;5028706;28;20451;-65
2022/11/02 11:46:15;;;;;;;6.97;1.40;;;22.10;85.60;;;;;;5011838;28;20099;-66
2022/11/02 11:48:45;;;;;;;13.45;2.20;;;22.40;86.00;;;;;;5029811;28;20115;-66
2022/11/02 11:51:30;;;;;;;6.40;1.55;;;22.70;85.50;;;;;;5016143;28;20064;-66
2022/11/02 11:54:22;;;;;;;8.07;2.30;;;23.10;81.50;;;;;;5024301;28;20057;-66
2022/11/02 11:56:51;;;;;;;5.80;1.52;;;23.70;81.10;;;;;;5017773;28;20096;-65
2022/11/02 11:59:25;;;;;;;6.00;1.60;;;23.70;80.10;;;;;;5011000;28;20555;-65
2022/11/02 12:01:58;;;;;;;3.92;1.25;;;23.40;77.10;;;;;;5030363;28;20346;-65
2022/11/02 12:04:30;;;;;;;3.60;1.30;;;22.70;77.90;;;;;;5029423;28;20046;-65
2022/11/02 12:07:15;;;;;;;8.02;1.50;;;22.40;79.00;;;;;;5008510;28;20093;-65
2022/11/02 12:09:48;;;;;;;9.55;1.67;;;22.40;81.70;;;;;;5007544;28;20511;-65
2022/11/02 12:12:25;;;;;;;8.40;1.70;;;22.70;79.80;;;;;;5010969;28;20049;-65
2022/11/02 12:15:05;;;;;;;5.35;1.58;;;22.70;78.90;;;;;;5010617;28;20056;-66
2022/11/02 12:17:43;;;;;;;7.15;1.60;;;22.50;77.80;;;;;;5025581;28;20057;-65
2022/11/02 12:20:34;;;;;;;6.80;1.65;;;22.80;77.50;;;;;;5026598;28;20056;-66
2022/11/02 12:23:09;;;;;;;6.93;1.20;;;23.00;77.10;;;;;;5026539;28;20049;-65
2022/11/02 12:25:49;;;;;;;5.22;1.52;;;23.00;76.70;;;;;;5028869;28;20037;-66
2022/11/02 12:28:28;;;;;;;5.68;1.90;;;22.60;78.40;;;;;;5030893;28;20567;-65
2022/11/02 12:31:06;;;;;;;6.80;1.80;;;21.40;79.40;;;;;;5009052;28;20593;-65
2022/11/02 12:33:42;;;;;;;6.03;1.50;;;21.60;81.10;;;;;;5009342;28;20058;-65
2022/11/02 12:36:28;;;;;;;5.63;1.60;;;21.70;79.90;;;;;;5025320;28;20225;-65
2022/11/02 12:39:06;;;;;;;8.63;2.33;;;21.50;80.70;;;;;;5008603;28;20057;-65
2022/11/02 12:41:46;;;;;;;6.63;2.03;;;21.10;82.00;;;;;;5006670;28;20112;-65
2022/11/02 12:44:37;;;;;;;7.38;1.75;;;21.10;82.40;;;;;;5015299;28;20068;-66
2022/11/02 12:47:15;;;;;;;8.35;2.00;;;20.50;81.10;;;;;;5011373;28;20103;-64
2022/11/02 12:49:54;;;;;;;6.75;1.25;;;19.60;81.40;;;;;;5024807;28;20075;-64
2022/11/02 12:52:35;;;;;;;9.55;1.80;;;18.80;84.90;;;;;;5014359;28;20049;-65
2022/11/02 12:55:04;;;;;;;5.85;1.55;;;18.20;88.60;;;;;;5010572;28;20119;-64
2022/11/02 12:57:36;;;;;;;5.03;1.63;;;18.90;86.90;;;;;;5008873;28;20088;-65
2022/11/02 13:00:06;;;;;;;6.97;2.30;;;19.80;84.40;;;;;;5009152;28;20397;-65
2022/11/02 13:02:44;;;;;;;7.35;1.52;;;20.90;83.70;;;;;;5027060;28;20136;-65
2022/11/02 13:05:17;;;;;;;7.00;1.75;;;22.00;81.40;;;;;;5010337;28;20058;-64
2022/11/02 13:07:48;;;;;;;9.15;2.00;;;22.40;79.70;;;;;;5026286;28;20128;-64
2022/11/02 13:10:18;;;;;;;8.77;2.03;;;21.60;80.40;;;;;;5023811;28;20042;-65
2022/11/02 13:12:48;;;;;;;6.93;2.33;;;20.40;82.00;;;;;;5026970;28;20072;-65
2022/11/02 13:15:20;;;;;;;8.18;2.15;;;19.60;84.90;;;;;;5032736;28;20049;-65